CheckWX is a tool to help pilots better visualize weather data.  It is not intended as a substitute for an official pre-flight weather briefing.

06:18:57 UTC

KCWC METAR
Kickapoo Downtown Airport
Wichita Falls, Texas, USA
Current

24 mins ago

KCWC 180555Z AUTO 00000KT 10SM CLR 07/02 A3006 RMK AO2 T00650022 10161 20063 401880043
Observed
Nov-18 @ 05:55 UTC
Visibility
10 SM
Flight Rules
VFR
Cloud Levels
  • Clear skies
Temperature
C / 45°F
Dewpoint
C / 36°F
Humidity
71%
Altimeter
30.06" Hg
Pressure
1017.92 hPa
Previous

44 mins ago

KCWC 180535Z AUTO 00000KT 10SM CLR 07/01 A3007 RMK AO2 T00660014
Observed
Nov-18 @ 05:35 UTC
Visibility
10 SM
Flight Rules
VFR
Cloud Levels
  • Clear skies
Temperature
C / 45°F
Dewpoint
C / 34°F
Humidity
66%
Altimeter
30.07" Hg
Pressure
1018.32 hPa
Previous

1 hour ago

KCWC 180515Z AUTO 00000KT 10SM CLR 07/01 A3008 RMK AO2 T00690010
Observed
Nov-18 @ 05:15 UTC
Visibility
10 SM
Flight Rules
VFR
Cloud Levels
  • Clear skies
Temperature
C / 45°F
Dewpoint
C / 34°F
Humidity
66%
Altimeter
30.08" Hg
Pressure
1018.62 hPa